Time;durP1;ratioP1;P1;durP2;ratioP2;P2;SDS_P1;SDS_P2;PMS_P1;PMS_P2;Temp;Humidity;BMP_temperature;BMP_pressure;BME280_temperature;BME280_humidity;BME280_pressure;Samples;Min_cycle;Max_cycle;Signal;HPM_P1;HPM_P2
2022/12/03 00:00:13;;;;;;;5.30;2.97;;;18.40;99.90;;;;;;7401677;19;19929;-45
2022/12/03 00:02:42;;;;;;;5.30;2.95;;;18.40;99.90;;;;;;7401412;19;19932;-46
2022/12/03 00:05:12;;;;;;;5.35;2.88;;;18.30;99.90;;;;;;7405572;19;19925;-46
2022/12/03 00:07:41;;;;;;;5.18;3.13;;;18.30;99.90;;;;;;7401468;19;20593;-45
2022/12/03 00:10:13;;;;;;;6.40;3.47;;;18.30;99.90;;;;;;7399981;19;19914;-45
2022/12/03 00:12:43;;;;;;;6.10;3.58;;;18.20;99.90;;;;;;7399160;19;20447;-45
2022/12/03 00:15:13;;;;;;;4.95;2.58;;;18.30;99.90;;;;;;7401088;19;19918;-47
2022/12/03 00:17:41;;;;;;;;;;;18.20;99.90;;;;;;7404874;19;19918;-47
2022/12/03 00:20:13;;;;;;;5.20;2.70;;;18.20;99.90;;;;;;7401594;19;22297;-47
2022/12/03 00:22:41;;;;;;;5.45;3.17;;;18.20;99.90;;;;;;7404181;19;19918;-45
2022/12/03 00:25:13;;;;;;;6.25;3.72;;;18.20;99.90;;;;;;7402765;19;19926;-47
2022/12/03 00:27:42;;;;;;;5.15;2.67;;;18.20;99.90;;;;;;7399040;19;19915;-45
2022/12/03 00:30:13;;;;;;;4.70;2.97;;;18.10;99.90;;;;;;7401662;19;19926;-46
2022/12/03 00:32:42;;;;;;;5.57;2.80;;;18.10;99.90;;;;;;7401556;19;19926;-45
2022/12/03 00:35:11;;;;;;;6.55;3.83;;;18.10;99.90;;;;;;7400589;19;19919;-46
2022/12/03 00:37:40;;;;;;;4.72;2.53;;;18.10;99.90;;;;;;7403005;19;19919;-45
2022/12/03 00:40:13;;;;;;;4.65;2.55;;;18.10;99.90;;;;;;7397604;19;19933;-45
2022/12/03 00:42:42;;;;;;;6.75;3.13;;;18.10;99.90;;;;;;7400166;19;19915;-45
2022/12/03 00:45:12;;;;;;;5.00;2.97;;;18.00;99.90;;;;;;7400203;19;20276;-47
2022/12/03 00:47:40;;;;;;;;;;;18.00;99.90;;;;;;7402534;19;19915;-45
2022/12/03 00:50:10;;;;;;;5.70;3.03;;;18.00;99.90;;;;;;7404517;19;20392;-48
2022/12/03 00:52:39;;;;;;;5.80;3.60;;;18.00;99.90;;;;;;7398733;19;19930;-44
2022/12/03 00:55:08;;;;;;;5.10;2.60;;;18.00;99.90;;;;;;7400796;19;19919;-47
2022/12/03 00:57:40;;;;;;;3.97;2.50;;;18.00;99.90;;;;;;7402257;19;19921;-44
2022/12/03 01:00:11;;;;;;;4.80;3.38;;;17.90;99.90;;;;;;7402021;19;19919;-45
2022/12/03 01:02:40;;;;;;;4.70;2.60;;;17.90;99.90;;;;;;7397893;19;20270;-46
2022/12/03 01:05:09;;;;;;;5.28;2.47;;;17.90;99.90;;;;;;7403264;19;20258;-45
2022/12/03 01:07:38;;;;;;;5.63;2.90;;;17.90;99.90;;;;;;7406954;19;19931;-45
2022/12/03 01:10:09;;;;;;;5.60;2.88;;;17.90;99.90;;;;;;7406632;19;19950;-45
2022/12/03 01:12:40;;;;;;;4.93;2.42;;;17.90;99.90;;;;;;7405955;19;19922;-45
2022/12/03 01:15:11;;;;;;;5.68;3.92;;;17.90;99.90;;;;;;7406249;19;20390;-45
2022/12/03 01:17:40;;;;;;;4.68;3.20;;;17.80;99.90;;;;;;7406382;19;19931;-45
2022/12/03 01:20:11;;;;;;;4.75;2.40;;;17.80;99.90;;;;;;7405560;19;19918;-47
2022/12/03 01:22:40;;;;;;;5.88;3.00;;;17.80;99.90;;;;;;7406960;19;20261;-45
2022/12/03 01:25:09;;;;;;;4.55;2.33;;;17.80;99.90;;;;;;7407876;19;20277;-46
2022/12/03 01:27:40;;;;;;;;;;;17.70;99.90;;;;;;7406430;19;19914;-46
2022/12/03 01:30:11;;;;;;;4.97;2.72;;;17.70;99.90;;;;;;7407455;19;19925;-48
2022/12/03 01:32:37;;;;;;;4.43;2.50;;;17.70;99.90;;;;;;7405180;19;20347;-45
2022/12/03 01:35:07;;;;;;;4.38;2.17;;;17.70;99.90;;;;;;7406849;19;19923;-44
2022/12/03 01:37:35;;;;;;;;;;;17.70;99.90;;;;;;7409368;19;19933;-47
2022/12/03 01:40:04;;;;;;;4.13;2.95;;;17.70;99.90;;;;;;7407670;19;19922;-47
2022/12/03 01:42:36;;;;;;;5.03;2.50;;;17.60;99.90;;;;;;7406853;19;19926;-47
2022/12/03 01:45:13;;;;;;;4.97;2.85;;;17.60;99.90;;;;;;7407432;19;19922;-44
2022/12/03 01:47:42;;;;;;;5.65;3.25;;;17.60;99.90;;;;;;7406758;19;19937;-46
2022/12/03 01:50:19;;;;;;;5.15;3.47;;;17.60;99.90;;;;;;7406969;19;19929;-47
2022/12/03 01:52:48;;;;;;;5.13;3.55;;;17.60;99.90;;;;;;7403291;19;20521;-45
2022/12/03 01:55:19;;;;;;;5.47;2.55;;;17.60;99.90;;;;;;7404616;19;19929;-47
2022/12/03 01:57:51;;;;;;;5.40;2.97;;;17.60;99.90;;;;;;7404804;19;19945;-45
2022/12/03 02:00:25;;;;;;;5.00;2.72;;;17.60;99.90;;;;;;7407904;19;20339;-46
2022/12/03 02:02:57;;;;;;;5.25;2.50;;;17.50;99.90;;;;;;7402352;19;19933;-45
2022/12/03 02:05:28;;;;;;;5.10;3.33;;;17.50;99.90;;;;;;7407478;19;19914;-45
2022/12/03 02:07:58;;;;;;;5.57;2.92;;;17.50;99.90;;;;;;7406946;19;20264;-45
2022/12/03 02:10:29;;;;;;;4.95;3.20;;;17.50;99.90;;;;;;7404808;19;19918;-45
2022/12/03 02:13:01;;;;;;;4.78;2.40;;;17.50;99.90;;;;;;7403167;19;19928;-45
2022/12/03 02:15:33;;;;;;;5.72;3.38;;;17.50;99.90;;;;;;7405612;19;19915;-47
2022/12/03 02:18:02;;;;;;;5.05;3.65;;;17.50;99.90;;;;;;7406033;19;19922;-49
2022/12/03 02:20:34;;;;;;;4.68;3.08;;;17.50;99.90;;;;;;7406471;19;19951;-49
2022/12/03 02:23:12;;;;;;;3.97;2.33;;;17.50;99.90;;;;;;7402454;19;19926;-46
2022/12/03 02:25:43;;;;;;;5.18;3.28;;;17.40;99.90;;;;;;7406609;19;19919;-47
2022/12/03 02:28:12;;;;;;;4.20;2.58;;;17.40;99.90;;;;;;7405675;19;19922;-45
2022/12/03 02:30:41;;;;;;;6.18;3.28;;;17.40;99.90;;;;;;7405815;19;19918;-44
2022/12/03 02:33:10;;;;;;;3.97;1.90;;;17.40;99.90;;;;;;7403763;19;20356;-47
2022/12/03 02:35:41;;;;;;;4.07;2.85;;;17.40;99.90;;;;;;7404845;19;19923;-47
2022/12/03 02:38:15;;;;;;;4.82;3.13;;;17.40;99.90;;;;;;7404938;19;19925;-45
2022/12/03 02:40:48;;;;;;;4.72;2.10;;;17.40;99.90;;;;;;7403910;19;19911;-47
2022/12/03 02:43:16;;;;;;;4.63;2.45;;;17.40;99.90;;;;;;7405696;19;19915;-44
2022/12/03 02:45:47;;;;;;;5.65;3.30;;;17.40;99.90;;;;;;7403555;19;19942;-47
2022/12/03 02:48:19;;;;;;;4.22;2.67;;;17.40;99.90;;;;;;7403666;19;19915;-45
2022/12/03 02:50:52;;;;;;;4.30;2.10;;;17.30;99.90;;;;;;7403772;19;19911;-45
2022/12/03 02:53:24;;;;;;;4.43;2.03;;;17.30;99.90;;;;;;7402864;19;20014;-48
2022/12/03 02:55:57;;;;;;;5.10;2.47;;;17.30;99.90;;;;;;7403706;19;20400;-45
2022/12/03 02:58:27;;;;;;;4.75;2.22;;;17.30;99.90;;;;;;7403208;19;19922;-46
2022/12/03 03:00:57;;;;;;;4.03;2.13;;;17.30;99.90;;;;;;7403861;19;19918;-45
2022/12/03 03:03:29;;;;;;;5.57;3.20;;;17.30;99.90;;;;;;7403316;19;19922;-45
2022/12/03 03:05:59;;;;;;;5.55;3.45;;;17.30;99.90;;;;;;7403173;19;19915;-46
2022/12/03 03:08:29;;;;;;;4.60;2.00;;;17.30;99.90;;;;;;7403506;19;19918;-46
2022/12/03 03:11:05;;;;;;;4.50;2.90;;;17.30;99.90;;;;;;7405333;19;20348;-47
2022/12/03 03:13:36;;;;;;;5.32;3.47;;;17.30;99.90;;;;;;7402994;19;19927;-48
2022/12/03 03:16:07;;;;;;;4.22;2.88;;;17.20;99.90;;;;;;7403500;19;19930;-45
2022/12/03 03:18:37;;;;;;;5.75;2.90;;;17.20;99.90;;;;;;7403605;19;20008;-46
2022/12/03 03:21:06;;;;;;;4.30;2.33;;;17.20;99.90;;;;;;7403679;19;19922;-48
2022/12/03 03:23:36;;;;;;;3.72;2.53;;;17.20;99.90;;;;;;7404049;19;19914;-45
2022/12/03 03:26:11;;;;;;;4.60;3.00;;;17.20;99.90;;;;;;7402341;19;19918;-46
2022/12/03 03:28:43;;;;;;;5.65;4.20;;;17.20;99.90;;;;;;7405966;19;19914;-45
2022/12/03 03:31:15;;;;;;;4.30;2.47;;;17.20;99.90;;;;;;7406437;19;19926;-45
2022/12/03 03:33:47;;;;;;;6.85;2.22;;;17.20;99.90;;;;;;7400657;19;19925;-45
2022/12/03 03:36:17;;;;;;;5.07;2.97;;;17.20;99.90;;;;;;7402480;19;19915;-46
2022/12/03 03:38:46;;;;;;;4.93;2.13;;;17.20;99.90;;;;;;7404371;19;19929;-46
2022/12/03 03:41:18;;;;;;;4.45;1.85;;;17.20;99.90;;;;;;7405121;19;19921;-46
2022/12/03 03:43:49;;;;;;;5.25;2.35;;;17.20;99.90;;;;;;7402502;19;19926;-46
2022/12/03 03:46:18;;;;;;;4.15;2.00;;;17.20;99.90;;;;;;7403934;19;19921;-46
2022/12/03 03:48:48;;;;;;;;;;;17.20;99.90;;;;;;7403406;19;19925;-47
2022/12/03 03:51:18;;;;;;;4.57;2.92;;;17.10;99.90;;;;;;7402003;19;19946;-45
2022/12/03 03:53:50;;;;;;;4.88;2.85;;;17.10;99.90;;;;;;7399698;19;20001;-46
2022/12/03 03:56:22;;;;;;;4.32;2.20;;;17.10;99.90;;;;;;7401312;19;20531;-45
2022/12/03 03:58:51;;;;;;;4.22;2.20;;;17.10;99.90;;;;;;7401844;19;19922;-49
2022/12/03 04:01:20;;;;;;;3.85;1.77;;;17.10;99.90;;;;;;7401841;19;20261;-48
2022/12/03 04:03:49;;;;;;;4.97;3.33;;;17.10;99.90;;;;;;7401893;19;19921;-49
2022/12/03 04:06:18;;;;;;;4.03;2.88;;;17.10;99.90;;;;;;7398065;19;19985;-46
2022/12/03 04:08:47;;;;;;;4.82;2.63;;;17.10;99.90;;;;;;7401498;19;19911;-47
2022/12/03 04:14:00;;;;;;;4.28;2.10;;;17.10;99.90;;;;;;7402181;19;19926;-46
2022/12/03 04:16:29;;;;;;;3.88;2.00;;;17.10;99.90;;;;;;7401314;19;19921;-46
2022/12/03 04:18:58;;;;;;;4.22;2.45;;;17.10;99.90;;;;;;7403271;19;20352;-47
2022/12/03 04:24:10;;;;;;;4.53;2.75;;;17.00;99.90;;;;;;7401414;19;19926;-45
2022/12/03 04:29:24;;;;;;;4.60;2.63;;;17.00;99.90;;;;;;7399796;19;19919;-48
2022/12/03 04:37:15;;;;;;;3.75;1.65;;;17.00;99.90;;;;;;7400507;19;20268;-44
2022/12/03 04:39:44;;;;;;;3.70;2.38;;;17.00;99.90;;;;;;7402675;19;19918;-46
2022/12/03 04:42:13;;;;;;;4.18;1.80;;;17.00;99.90;;;;;;7407075;19;20273;-45
2022/12/03 04:44:44;;;;;;;3.53;1.70;;;17.00;99.90;;;;;;7406996;19;19911;-45
2022/12/03 04:47:16;;;;;;;4.05;2.42;;;17.00;99.90;;;;;;7407386;19;19915;-49
2022/12/03 04:49:46;;;;;;;3.70;1.90;;;17.00;99.90;;;;;;7408721;19;19929;-46
2022/12/03 04:52:18;;;;;;;4.20;1.83;;;17.00;99.90;;;;;;7407612;19;19915;-46
2022/12/03 04:54:48;;;;;;;4.53;2.20;;;17.00;99.90;;;;;;7406953;19;19915;-45
2022/12/03 04:57:17;;;;;;;4.65;2.50;;;17.00;99.90;;;;;;7406290;19;20284;-47
2022/12/03 04:59:48;;;;;;;4.82;3.08;;;17.00;99.90;;;;;;7408212;19;19954;-45
2022/12/03 05:02:17;;;;;;;3.80;2.00;;;17.00;99.90;;;;;;7406604;19;19918;-46
2022/12/03 05:04:46;;;;;;;4.43;2.92;;;17.00;99.90;;;;;;7405940;19;20024;-45
2022/12/03 05:07:15;;;;;;;3.80;1.90;;;16.90;99.90;;;;;;7406770;19;20223;-50
2022/12/03 05:09:43;;;;;;;3.50;1.77;;;16.90;99.90;;;;;;7403088;19;19985;-51
2022/12/03 05:12:12;;;;;;;4.90;2.33;;;17.00;99.90;;;;;;7409733;19;20272;-47
2022/12/03 05:14:41;;;;;;;3.95;2.15;;;17.10;99.90;;;;;;7402493;19;21099;-45
2022/12/03 05:17:13;;;;;;;4.07;2.20;;;17.20;99.90;;;;;;7406391;19;20539;-45
2022/12/03 05:22:23;;;;;;;6.05;2.08;;;17.40;99.90;;;;;;7401075;19;19919;-44
2022/12/03 05:24:52;;;;;;;6.68;2.47;;;17.50;99.90;;;;;;7409676;19;19927;-49
2022/12/03 05:27:21;;;;;;;3.28;1.38;;;17.70;99.90;;;;;;7407396;19;19957;-51
2022/12/03 05:29:50;;;;;;;5.88;2.40;;;17.80;99.90;;;;;;7406102;19;19918;-49
2022/12/03 05:32:22;;;;;;;3.80;1.30;;;17.90;99.90;;;;;;7406694;19;19922;-49
2022/12/03 05:34:51;;;;;;;4.05;2.33;;;18.00;99.90;;;;;;7409297;19;19918;-51
2022/12/03 05:37:20;;;;;;;4.57;2.90;;;18.20;99.90;;;;;;7405892;19;19915;-48
2022/12/03 05:39:49;;;;;;;4.75;2.42;;;18.30;99.90;;;;;;7408814;19;19943;-49
2022/12/03 05:44:59;;;;;;;3.65;1.75;;;18.50;99.90;;;;;;7410315;19;19914;-48
2022/12/03 05:47:30;;;;;;;3.63;1.95;;;18.70;99.90;;;;;;7404332;19;19927;-48
2022/12/03 05:49:59;;;;;;;4.15;1.52;;;18.70;99.90;;;;;;7408309;19;19982;-48
2022/12/03 05:52:28;;;;;;;4.85;2.67;;;18.80;99.90;;;;;;7405863;19;19929;-48
2022/12/03 05:54:57;;;;;;;4.78;2.50;;;18.90;99.90;;;;;;7405758;19;20367;-47
2022/12/03 05:57:26;;;;;;;3.97;1.88;;;19.00;99.90;;;;;;7407480;19;20025;-48
2022/12/03 05:59:55;;;;;;;3.10;1.90;;;19.00;99.90;;;;;;7403842;19;19950;-48
2022/12/03 06:02:24;;;;;;;3.95;2.35;;;19.10;99.80;;;;;;7407481;19;20396;-48
2022/12/03 06:04:55;;;;;;;3.67;1.52;;;19.20;99.70;;;;;;7404914;19;19929;-48
2022/12/03 06:07:24;;;;;;;6.07;2.28;;;19.20;99.60;;;;;;7406842;19;19919;-49
2022/12/03 06:09:53;;;;;;;3.65;1.90;;;19.30;99.60;;;;;;7404759;19;19962;-46
2022/12/03 06:12:22;;;;;;;3.83;1.48;;;19.40;99.60;;;;;;7402464;19;19962;-46
2022/12/03 06:14:51;;;;;;;3.35;2.30;;;19.40;99.50;;;;;;7404168;19;19922;-48
2022/12/03 06:17:21;;;;;;;4.05;1.60;;;19.40;99.50;;;;;;7404648;19;19919;-49
2022/12/03 06:19:49;;;;;;;4.03;2.30;;;19.50;99.40;;;;;;7405969;19;20644;-45
2022/12/03 06:22:21;;;;;;;3.33;1.95;;;19.50;99.40;;;;;;7405447;19;19925;-44
2022/12/03 06:24:50;;;;;;;3.78;2.25;;;19.60;99.30;;;;;;7404707;19;20653;-47
2022/12/03 06:27:19;;;;;;;6.13;2.28;;;19.60;99.30;;;;;;7403144;19;19927;-48
2022/12/03 06:29:48;;;;;;;3.80;2.30;;;19.60;99.30;;;;;;7402017;19;19930;-49
2022/12/03 06:32:17;;;;;;;4.25;2.63;;;19.70;99.20;;;;;;7407521;19;19929;-47
2022/12/03 06:34:46;;;;;;;3.17;1.50;;;19.70;99.20;;;;;;7404275;19;19923;-45
2022/12/03 06:37:15;;;;;;;3.78;2.25;;;19.80;99.20;;;;;;7404306;19;19947;-49
2022/12/03 06:39:46;;;;;;;3.67;1.77;;;19.80;99.10;;;;;;7406646;19;19922;-49
2022/12/03 06:42:15;;;;;;;4.80;2.13;;;19.80;99.10;;;;;;7404016;19;19927;-48
2022/12/03 06:44:44;;;;;;;3.42;1.65;;;19.80;99.00;;;;;;7404240;19;19921;-46
2022/12/03 06:47:13;;;;;;;3.70;2.33;;;19.80;99.00;;;;;;7405903;19;19922;-45
2022/12/03 06:49:42;;;;;;;3.70;2.10;;;19.90;99.00;;;;;;7402486;19;19930;-49
2022/12/03 06:52:10;;;;;;;3.75;2.30;;;19.90;99.00;;;;;;7405671;19;19918;-48
2022/12/03 06:54:39;;;;;;;3.58;1.38;;;19.90;99.00;;;;;;7402059;19;20252;-46
2022/12/03 06:57:11;;;;;;;3.65;2.20;;;19.90;98.90;;;;;;7404998;19;19919;-46
2022/12/03 06:59:40;;;;;;;5.05;2.72;;;19.90;98.90;;;;;;7405014;19;19926;-49
2022/12/03 07:02:09;;;;;;;3.75;2.17;;;19.90;99.00;;;;;;7405092;19;19919;-49
2022/12/03 07:04:40;;;;;;;3.95;1.95;;;20.00;99.00;;;;;;7407469;19;19933;-48
2022/12/03 07:07:09;;;;;;;5.38;1.50;;;20.00;98.90;;;;;;7404902;19;20312;-48
2022/12/03 07:09:38;;;;;;;3.35;2.08;;;20.00;98.80;;;;;;7407074;19;20361;-45
2022/12/03 07:12:07;;;;;;;5.55;1.90;;;20.00;99.10;;;;;;7400529;19;19926;-45
2022/12/03 07:14:39;;;;;;;3.85;2.13;;;20.00;98.90;;;;;;7401837;19;19926;-49
2022/12/03 07:17:08;;;;;;;3.38;2.45;;;20.00;98.70;;;;;;7403482;19;19930;-45
2022/12/03 07:19:37;;;;;;;;;;;20.00;99.10;;;;;;7408441;19;19921;-48
2022/12/03 07:22:06;;;;;;;3.17;2.30;;;19.90;98.70;;;;;;7401039;19;19910;-49
2022/12/03 07:24:35;;;;;;;4.53;2.55;;;19.90;99.00;;;;;;7402598;19;19966;-48
2022/12/03 07:27:04;;;;;;;3.40;1.40;;;19.90;99.00;;;;;;7399965;19;19914;-48
2022/12/03 07:29:33;;;;;;;3.75;2.20;;;20.00;99.00;;;;;;7401018;19;19917;-49
2022/12/03 07:32:04;;;;;;;3.05;1.15;;;20.00;99.10;;;;;;7398434;19;19937;-48
2022/12/03 07:34:33;;;;;;;3.35;2.38;;;20.00;99.00;;;;;;7397666;19;19926;-50
2022/12/03 07:37:02;;;;;;;3.20;1.50;;;20.00;99.00;;;;;;7402698;19;20365;-50
2022/12/03 07:39:31;;;;;;;4.80;1.70;;;20.00;99.10;;;;;;7403685;19;19914;-47
2022/12/03 07:41:59;;;;;;;3.58;2.78;;;20.00;99.10;;;;;;7405269;19;19918;-50
2022/12/03 07:44:30;;;;;;;3.45;1.17;;;20.00;99.10;;;;;;7400985;19;19938;-62
2022/12/03 07:46:59;;;;;;;4.20;2.28;;;20.00;99.20;;;;;;7400385;19;19919;-56
2022/12/03 07:49:30;;;;;;;6.78;1.83;;;20.20;99.00;;;;;;7400404;19;20351;-55
2022/12/03 07:51:59;;;;;;;3.83;2.47;;;20.10;98.90;;;;;;7400126;19;20367;-52
2022/12/03 07:54:28;;;;;;;4.50;1.40;;;20.10;99.00;;;;;;7398411;19;19929;-48
2022/12/03 07:56:57;;;;;;;3.08;1.92;;;20.00;99.00;;;;;;7401716;19;19993;-53
2022/12/03 07:59:26;;;;;;;3.05;1.70;;;19.90;99.00;;;;;;7404245;19;19925;-46
2022/12/03 08:01:55;;;;;;;2.83;1.75;;;19.90;99.10;;;;;;7401465;19;20345;-49
2022/12/03 08:04:24;;;;;;;4.03;2.30;;;19.80;99.10;;;;;;7398310;19;19926;-47
2022/12/03 08:06:55;;;;;;;4.13;2.00;;;19.80;99.10;;;;;;7402164;19;19922;-45
2022/12/03 08:09:25;;;;;;;3.67;2.38;;;19.70;99.30;;;;;;7399062;19;19925;-45
2022/12/03 08:11:54;;;;;;;;;;;19.50;99.10;;;;;;7401771;19;19949;-45
2022/12/03 08:14:23;;;;;;;3.60;2.05;;;19.50;99.10;;;;;;7399363;19;19922;-49
2022/12/03 08:16:52;;;;;;;4.55;2.35;;;19.30;99.40;;;;;;7405629;19;19915;-45
2022/12/03 08:19:21;;;;;;;4.50;2.25;;;19.30;99.40;;;;;;7405629;19;19925;-46
2022/12/03 08:21:51;;;;;;;3.90;1.48;;;19.30;99.50;;;;;;7405241;19;20284;-46
2022/12/03 08:24:23;;;;;;;3.10;1.38;;;19.20;99.50;;;;;;7405296;19;19915;-47
2022/12/03 08:26:52;;;;;;;4.53;2.47;;;19.10;99.50;;;;;;6631918;19;15098824;-48
2022/12/03 08:29:21;;;;;;;3.63;2.00;;;19.10;99.60;;;;;;7407249;19;19915;-46
2022/12/03 08:31:53;;;;;;;3.38;2.08;;;19.00;99.60;;;;;;7405442;19;19918;-46
2022/12/03 08:34:25;;;;;;;4.50;2.35;;;18.90;99.70;;;;;;7406346;19;19914;-47
2022/12/03 08:36:59;;;;;;;3.60;1.40;;;18.90;99.70;;;;;;7406495;19;20266;-50
2022/12/03 08:39:36;;;;;;;4.28;2.40;;;18.80;99.70;;;;;;7407239;19;19921;-48
2022/12/03 08:44:55;;;;;;;4.45;1.70;;;18.70;99.80;;;;;;7407534;19;20340;-45
2022/12/03 08:47:25;;;;;;;4.07;2.42;;;18.60;99.80;;;;;;7407278;19;19926;-45
2022/12/03 08:49:57;;;;;;;4.03;1.70;;;18.60;99.80;;;;;;7407280;19;20325;-46
2022/12/03 08:52:33;;;;;;;3.55;2.28;;;18.50;99.90;;;;;;7406955;19;19919;-46
2022/12/03 08:55:33;;;;;;;3.00;1.13;;;18.50;99.90;;;;;;7404828;19;19926;-46
2022/12/03 08:58:02;;;;;;;4.72;2.70;;;18.40;99.90;;;;;;7406307;19;20573;-49
2022/12/03 09:00:31;;;;;;;4.35;2.75;;;18.40;99.90;;;;;;7407595;19;19922;-46
2022/12/03 09:03:02;;;;;;;4.20;1.58;;;18.40;99.90;;;;;;7406776;19;19918;-47
2022/12/03 09:05:33;;;;;;;2.90;1.67;;;18.30;99.90;;;;;;7406795;19;19918;-46
2022/12/03 09:08:02;;;;;;;4.55;2.25;;;18.30;99.90;;;;;;7406797;19;19926;-48
2022/12/03 09:10:34;;;;;;;5.10;2.15;;;18.20;99.90;;;;;;7406211;19;19922;-46
2022/12/03 09:13:03;;;;;;;2.95;2.10;;;18.20;99.90;;;;;;7406898;19;19914;-49
2022/12/03 09:15:31;;;;;;;4.53;2.33;;;18.20;99.90;;;;;;7404186;19;19919;-47
2022/12/03 09:18:00;;;;;;;3.67;1.70;;;18.10;99.90;;;;;;7406932;19;19922;-46
2022/12/03 09:20:29;;;;;;;3.58;1.55;;;18.10;99.90;;;;;;7406232;19;19915;-49
2022/12/03 09:22:59;;;;;;;;;;;18.10;99.90;;;;;;7408439;19;19923;-45
2022/12/03 09:25:27;;;;;;;3.40;1.70;;;18.00;99.90;;;;;;7405453;19;19910;-46
2022/12/03 09:27:59;;;;;;;4.43;2.13;;;18.00;99.90;;;;;;7404052;19;19923;-48
2022/12/03 09:30:28;;;;;;;3.42;2.10;;;18.00;99.90;;;;;;7405417;19;19919;-45
2022/12/03 09:32:58;;;;;;;4.85;2.22;;;18.00;99.90;;;;;;7406271;19;19933;-47
2022/12/03 09:35:27;;;;;;;4.30;2.53;;;17.90;99.90;;;;;;7404696;19;19951;-45
2022/12/03 09:37:56;;;;;;;3.42;2.20;;;17.90;99.90;;;;;;7405674;19;19925;-48
2022/12/03 09:40:25;;;;;;;3.78;2.60;;;17.90;99.90;;;;;;7404523;19;19921;-44
2022/12/03 09:42:57;;;;;;;4.40;2.20;;;17.80;99.90;;;;;;7405285;19;19933;-48
2022/12/03 09:45:29;;;;;;;4.68;2.58;;;17.80;99.90;;;;;;7406284;19;19910;-46
2022/12/03 09:47:58;;;;;;;4.07;2.22;;;17.80;99.90;;;;;;7405551;19;19914;-46
2022/12/03 09:50:28;;;;;;;4.45;2.53;;;17.80;99.90;;;;;;7405538;19;19970;-45
2022/12/03 09:53:00;;;;;;;3.63;1.50;;;17.80;99.90;;;;;;7405631;19;19922;-46
2022/12/03 09:55:29;;;;;;;3.70;2.40;;;17.70;99.90;;;;;;7402236;19;19978;-45
2022/12/03 09:57:59;;;;;;;;;;;17.70;99.90;;;;;;7407207;19;19918;-48
2022/12/03 10:00:32;;;;;;;4.43;2.42;;;17.70;99.90;;;;;;7405077;19;19915;-49
2022/12/03 10:03:04;;;;;;;4.85;1.83;;;17.70;99.90;;;;;;7405286;19;20341;-45
2022/12/03 10:05:34;;;;;;;3.83;2.30;;;17.70;99.90;;;;;;7405189;19;19922;-48
2022/12/03 10:08:07;;;;;;;4.53;2.30;;;17.70;99.90;;;;;;7405634;19;19951;-47
2022/12/03 10:10:37;;;;;;;3.70;1.55;;;17.70;99.90;;;;;;7404985;19;20002;-46
2022/12/03 10:13:08;;;;;;;3.95;2.38;;;17.60;99.90;;;;;;7404813;19;19925;-48
2022/12/03 10:15:39;;;;;;;4.45;2.13;;;17.60;99.90;;;;;;7403587;19;19922;-47
2022/12/03 10:18:19;;;;;;;3.88;1.67;;;17.50;99.90;;;;;;7404876;19;19978;-46
2022/12/03 10:20:48;;;;;;;4.93;2.53;;;17.60;99.90;;;;;;7405616;19;20372;-46
2022/12/03 10:23:23;;;;;;;3.67;2.20;;;17.60;99.90;;;;;;7404599;19;19929;-47
2022/12/03 10:25:54;;;;;;;3.67;2.35;;;17.50;99.90;;;;;;7404770;19;20336;-47
2022/12/03 10:28:34;;;;;;;4.22;2.40;;;17.50;99.90;;;;;;7404102;19;19982;-49
2022/12/03 10:31:09;;;;;;;4.18;2.33;;;17.50;99.90;;;;;;7403084;19;19918;-48
2022/12/03 10:33:40;;;;;;;4.57;2.05;;;17.50;99.90;;;;;;7404189;19;19925;-46
2022/12/03 10:36:22;;;;;;;4.30;1.73;;;17.50;99.90;;;;;;7402966;19;19955;-47
2022/12/03 10:39:08;;;;;;;4.18;1.58;;;17.50;99.90;;;;;;7402411;19;19914;-46
2022/12/03 10:41:38;;;;;;;3.65;2.30;;;17.50;99.90;;;;;;7404124;19;19931;-47
2022/12/03 10:44:17;;;;;;;4.13;2.13;;;17.40;99.90;;;;;;7402559;19;19925;-46
2022/12/03 10:47:06;;;;;;;6.22;2.67;;;17.50;99.90;;;;;;7404408;19;19919;-47
2022/12/03 10:49:35;;;;;;;4.18;2.53;;;17.50;99.90;;;;;;7403877;19;19919;-48
2022/12/03 10:52:05;;;;;;;5.15;2.42;;;17.40;99.90;;;;;;7403778;19;19919;-47
2022/12/03 10:54:36;;;;;;;4.88;2.53;;;17.40;99.90;;;;;;7403363;19;20289;-45
2022/12/03 10:57:05;;;;;;;3.40;2.17;;;17.40;99.90;;;;;;7403342;19;20341;-45
2022/12/03 10:59:35;;;;;;;3.50;1.55;;;17.40;99.90;;;;;;7403899;19;19938;-46
2022/12/03 11:02:14;;;;;;;3.50;1.90;;;17.40;99.90;;;;;;7403766;19;19925;-45
2022/12/03 11:04:43;;;;;;;3.17;1.30;;;17.40;99.90;;;;;;7403726;19;19922;-45
2022/12/03 11:07:16;;;;;;;3.45;1.70;;;17.30;99.90;;;;;;7403272;19;19966;-45
2022/12/03 11:09:47;;;;;;;3.05;1.33;;;17.30;99.90;;;;;;7403492;19;19926;-45
2022/12/03 11:12:22;;;;;;;3.60;2.45;;;17.40;99.90;;;;;;7403549;19;19957;-46
2022/12/03 11:15:07;;;;;;;4.43;2.50;;;17.30;99.90;;;;;;7403147;19;19919;-46
2022/12/03 11:17:51;;;;;;;3.40;1.70;;;17.30;99.90;;;;;;7403133;19;19911;-46
2022/12/03 11:20:59;;;;;;;3.35;1.90;;;17.30;99.90;;;;;;7403054;19;19914;-46
2022/12/03 11:23:58;;;;;;;3.65;1.45;;;17.30;99.90;;;;;;7401885;19;19914;-45
2022/12/03 11:26:57;;;;;;;4.60;2.50;;;17.30;99.90;;;;;;7402021;19;19922;-47
2022/12/03 11:29:54;;;;;;;3.95;1.50;;;17.30;99.90;;;;;;7402818;19;20547;-47
2022/12/03 11:33:05;;;;;;;3.90;1.45;;;17.30;99.90;;;;;;7402774;19;19923;-46
2022/12/03 11:36:14;;;;;;;5.00;1.55;;;17.30;99.90;;;;;;7401655;19;20282;-46
2022/12/03 11:38:52;;;;;;;4.65;1.40;;;17.30;99.90;;;;;;7401708;19;19925;-47
2022/12/03 11:41:23;;;;;;;4.13;2.47;;;17.30;99.90;;;;;;7402526;19;19925;-46
2022/12/03 11:44:22;;;;;;;3.58;1.60;;;17.30;99.90;;;;;;7402796;19;19947;-46
2022/12/03 11:46:51;;;;;;;4.75;2.20;;;17.30;99.90;;;;;;7401772;19;19914;-47
2022/12/03 11:49:30;;;;;;;4.22;2.42;;;17.30;99.90;;;;;;7402141;19;19926;-49
2022/12/03 11:52:00;;;;;;;3.78;1.63;;;17.30;99.90;;;;;;7402154;19;19914;-46
2022/12/03 11:54:36;;;;;;;3.80;1.70;;;17.30;99.90;;;;;;7401944;19;20315;-46
2022/12/03 11:57:05;;;;;;;3.30;1.80;;;17.30;99.90;;;;;;7401546;19;19914;-45
2022/12/03 11:59:34;;;;;;;3.45;2.47;;;17.30;99.90;;;;;;7401770;19;20328;-45
2022/12/03 12:02:03;;;;;;;3.53;1.65;;;17.20;99.90;;;;;;7401777;19;19919;-46
2022/12/03 12:04:34;;;;;;;3.30;1.50;;;17.20;99.90;;;;;;7401818;19;20398;-45
2022/12/03 12:07:03;;;;;;;3.40;1.80;;;17.20;99.90;;;;;;7401961;19;20258;-46
2022/12/03 12:09:56;;;;;;;4.95;1.98;;;17.20;99.90;;;;;;7401589;19;19919;-47
2022/12/03 12:12:33;;;;;;;3.38;1.60;;;17.20;99.90;;;;;;7401208;19;19918;-45
2022/12/03 12:15:22;;;;;;;4.05;2.40;;;17.20;99.90;;;;;;7401096;19;20341;-46
2022/12/03 12:17:54;;;;;;;3.38;2.05;;;17.20;99.90;;;;;;7401123;19;19922;-47
2022/12/03 12:20:27;;;;;;;3.80;2.53;;;17.20;99.90;;;;;;7401186;19;19918;-46
2022/12/03 12:22:56;;;;;;;4.30;2.30;;;17.20;99.90;;;;;;7401245;19;19923;-45
2022/12/03 12:25:41;;;;;;;3.63;1.70;;;17.20;99.90;;;;;;7400980;19;19944;-47
2022/12/03 12:28:10;;;;;;;3.55;2.00;;;17.20;99.90;;;;;;7399188;19;19930;-47
2022/12/03 12:30:40;;;;;;;4.35;2.45;;;17.20;99.90;;;;;;7400386;19;19998;-45
2022/12/03 12:33:25;;;;;;;4.85;2.33;;;17.30;99.90;;;;;;7405294;19;19911;-47
2022/12/03 12:35:54;;;;;;;3.63;2.10;;;17.20;99.90;;;;;;7399490;19;20828;-46
2022/12/03 12:38:23;;;;;;;3.00;2.17;;;17.20;99.90;;;;;;7400605;19;19921;-45
2022/12/03 12:40:52;;;;;;;4.15;2.42;;;17.20;99.90;;;;;;7400461;19;19953;-46
2022/12/03 12:43:24;;;;;;;3.42;1.70;;;17.20;99.90;;;;;;7400567;19;19919;-47
2022/12/03 12:45:55;;;;;;;4.57;2.10;;;17.20;99.90;;;;;;7400328;19;19918;-47
2022/12/03 12:48:28;;;;;;;3.50;2.30;;;17.20;99.90;;;;;;7400246;19;19919;-48
2022/12/03 12:51:02;;;;;;;3.25;1.95;;;17.20;99.90;;;;;;7400552;19;19925;-48
2022/12/03 12:53:34;;;;;;;3.67;2.42;;;17.20;99.90;;;;;;7400070;19;19918;-47
2022/12/03 12:56:08;;;;;;;3.38;2.42;;;17.20;99.90;;;;;;7398783;19;19925;-49
2022/12/03 12:58:38;;;;;;;4.72;1.73;;;17.20;99.90;;;;;;7400360;19;19919;-45
2022/12/03 13:01:12;;;;;;;4.57;2.33;;;17.10;99.90;;;;;;7403485;19;19919;-48
2022/12/03 13:03:44;;;;;;;3.47;2.08;;;17.20;99.90;;;;;;7406914;19;20348;-44
2022/12/03 13:06:13;;;;;;;3.63;2.25;;;17.10;99.90;;;;;;7406545;19;19919;-47
2022/12/03 13:08:46;;;;;;;3.88;2.20;;;17.10;99.90;;;;;;7406833;19;19910;-48
2022/12/03 13:11:34;;;;;;;4.00;1.70;;;17.10;99.90;;;;;;7406386;19;19939;-47
2022/12/03 13:14:07;;;;;;;3.20;1.60;;;17.10;99.90;;;;;;7406892;19;19982;-48
2022/12/03 13:16:36;;;;;;;2.88;1.20;;;17.10;99.90;;;;;;7404590;19;19914;-47
2022/12/03 13:19:20;;;;;;;3.45;1.73;;;17.10;99.90;;;;;;7406194;19;19922;-48
2022/12/03 13:21:49;;;;;;;4.13;1.90;;;17.10;99.90;;;;;;7406107;19;19935;-46
2022/12/03 13:24:35;;;;;;;4.15;1.88;;;17.10;99.90;;;;;;7406546;19;19915;-46
2022/12/03 13:27:24;;;;;;;4.00;2.25;;;17.10;99.90;;;;;;7404223;19;19970;-48
2022/12/03 13:29:55;;;;;;;;;;;17.10;99.90;;;;;;7408452;19;19910;-46
2022/12/03 13:32:29;;;;;;;3.45;1.23;;;17.00;99.90;;;;;;7406010;19;19968;-45
2022/12/03 13:35:05;;;;;;;3.47;1.40;;;17.00;99.90;;;;;;7405923;19;20282;-45